createdAt,value
2024-02-13T02:48:23.431Z,98713.69
2024-02-13T02:50:51.784Z,98690.22
2024-02-13T03:38:12.455Z,98758.78
2024-02-13T03:40:40.324Z,98745.78
2024-02-13T04:03:58.474Z,98778.78
2024-02-13T04:13:19.317Z,98796.09
2024-02-13T04:15:47.217Z,98821.69
2024-02-13T04:18:16.255Z,98823.94
2024-02-13T04:20:44.260Z,98819.69
2024-02-13T04:23:11.830Z,98845.88
2024-02-13T04:25:39.233Z,98833.69
2024-02-13T04:28:06.650Z,98835.00
2024-02-13T04:30:41.962Z,98845.03
2024-02-13T04:33:11.551Z,98850.22
2024-02-13T04:35:39.288Z,98861.19
2024-02-13T04:38:10.789Z,98838.47
2024-02-13T04:40:38.334Z,98878.19
2024-02-13T04:43:20.446Z,98882.47
2024-02-13T04:45:47.631Z,98880.00
2024-02-13T04:48:15.198Z,98900.75
2024-02-13T04:50:42.880Z,98889.81
2024-02-13T04:53:10.305Z,98882.34
2024-02-13T04:55:39.740Z,98895.44
2024-02-13T04:58:09.562Z,98884.09
2024-02-13T05:00:38.709Z,98907.63
2024-02-13T05:03:18.163Z,98909.50
2024-02-13T05:06:04.141Z,98908.19
2024-02-13T05:08:31.995Z,98932.75
2024-02-13T05:10:59.230Z,98930.38
2024-02-13T05:13:26.850Z,98936.13
2024-02-13T05:15:54.479Z,98940.84
2024-02-13T05:18:24.660Z,98951.69
2024-02-13T05:20:52.353Z,98960.13
2024-02-13T05:23:22.833Z,98952.41
2024-02-13T05:25:50.451Z,98969.84
2024-02-13T05:28:18.083Z,98971.00
2024-02-13T05:30:45.990Z,98975.94
2024-02-13T05:33:13.607Z,98975.31
2024-02-13T05:35:42.780Z,98988.97
2024-02-13T05:38:12.689Z,98993.03
2024-02-13T05:40:42.546Z,98980.19
2024-02-13T05:43:11.656Z,99000.69
2024-02-13T05:45:40.293Z,99009.69
2024-02-13T05:48:08.938Z,99017.19
2024-02-13T05:50:37.729Z,99011.09
2024-02-13T05:53:06.012Z,99036.03
2024-02-13T05:55:33.820Z,99014.84
2024-02-13T05:58:01.424Z,99033.44
2024-02-13T06:00:28.888Z,99044.31
2024-02-13T06:47:55.833Z,99128.53
2024-02-13T06:50:33.231Z,99137.78
2024-02-13T06:53:11.626Z,99128.03
2024-02-13T06:55:41.864Z,99143.97
2024-02-13T06:58:12.763Z,99151.03
2024-02-13T07:01:26.883Z,99136.72
2024-02-13T07:04:18.529Z,99163.16
2024-02-13T07:31:07.666Z,99223.69
2024-02-13T07:33:35.874Z,99211.34
2024-02-13T07:39:47.330Z,99192.22
2024-02-13T07:42:14.779Z,99229.31
2024-02-13T07:44:48.668Z,99227.44
2024-02-13T07:47:23.274Z,99222.59
2024-02-13T07:49:50.859Z,99244.91
2024-02-13T07:52:19.309Z,99242.63
2024-02-13T07:54:47.197Z,99246.19
2024-02-13T07:57:18.643Z,99249.97
2024-02-13T07:59:56.321Z,99232.72
2024-02-13T08:02:25.197Z,99259.63
2024-02-13T08:04:55.779Z,99268.81
2024-02-13T08:07:29.311Z,99256.78
2024-02-13T08:09:58.957Z,99261.00
2024-02-13T08:12:32.697Z,99270.72
2024-02-13T08:15:00.246Z,99259.72
2024-02-13T08:17:35.528Z,99301.41
2024-02-13T08:20:07.139Z,99284.56
2024-02-13T08:22:35.363Z,99293.16
2024-02-13T08:25:02.764Z,99277.63
2024-02-13T08:27:32.772Z,99290.94
2024-02-13T08:30:01.982Z,99322.19
2024-02-13T08:32:29.465Z,99331.16
2024-02-13T08:35:00.746Z,99324.41
2024-02-13T08:37:28.324Z,99326.22
2024-02-13T08:39:58.143Z,99345.31
2024-02-13T08:42:25.746Z,99332.94
2024-02-13T08:44:53.920Z,99348.25
2024-02-13T08:47:21.279Z,99350.25
2024-02-13T08:49:48.727Z,99363.09
2024-02-13T08:52:19.101Z,99345.03
2024-02-13T08:54:49.547Z,99364.06
2024-02-13T08:57:17.065Z,99357.28
2024-02-13T08:59:44.547Z,99364.75
2024-02-13T09:02:12.063Z,99345.06
2024-02-13T09:04:39.558Z,99363.31
2024-02-13T09:07:07.857Z,99371.00
2024-02-13T09:09:36.205Z,99352.31
2024-02-13T09:12:06.814Z,99366.25
2024-02-13T09:14:36.122Z,99354.22
2024-02-13T09:17:10.386Z,99337.50
2024-02-13T09:19:55.856Z,99357.59
2024-02-13T09:22:58.433Z,99368.81
2024-02-13T09:25:26.333Z,99362.00
2024-02-13T09:27:56.500Z,99353.66
2024-02-13T09:30:23.819Z,99366.50
2024-02-13T09:32:51.550Z,99375.66
2024-02-13T09:36:18.949Z,99381.66
2024-02-13T09:38:49.411Z,99352.47
2024-02-13T09:41:34.443Z,99367.09
2024-02-13T09:44:06.198Z,99361.66
2024-02-13T09:46:39.907Z,99379.22
2024-02-13T09:52:38.078Z,99370.09
2024-02-13T09:58:37.471Z,99398.41
2024-02-13T10:01:42.491Z,99407.88
2024-02-13T10:11:01.266Z,99387.78
2024-02-13T10:51:48.162Z,99435.72
2024-02-13T10:57:59.741Z,99458.88
2024-02-13T11:00:56.433Z,99479.94
2024-02-13T11:03:26.288Z,99449.91
2024-02-13T11:09:20.837Z,99469.00
2024-02-13T11:14:26.095Z,99456.28
2024-02-13T11:17:11.124Z,99445.00
2024-02-13T11:24:07.027Z,99478.28
2024-02-13T11:27:34.149Z,99498.03
2024-02-13T11:33:17.817Z,99481.13
2024-02-13T11:36:33.567Z,99494.63
2024-02-13T11:39:06.119Z,99483.97
2024-02-13T11:41:37.182Z,99488.38
2024-02-13T11:44:12.087Z,99504.19
2024-02-13T11:46:41.065Z,99530.28
2024-02-13T11:49:12.041Z,99536.91
2024-02-13T11:51:40.327Z,99546.47
2024-02-13T11:54:22.811Z,99532.81
2024-02-13T11:56:52.441Z,99534.50
2024-02-13T11:59:25.329Z,99552.19
2024-02-13T12:01:57.522Z,99536.88
2024-02-13T12:04:31.921Z,99541.81
2024-02-13T12:06:59.986Z,99539.53
2024-02-13T12:09:29.296Z,99564.19
2024-02-13T12:11:56.849Z,99554.91
2024-02-13T12:14:25.226Z,99542.41
2024-02-13T12:16:54.846Z,99551.31
2024-02-13T12:19:22.266Z,99539.06
2024-02-13T12:21:50.042Z,99560.91
2024-02-13T12:24:18.855Z,99560.28
2024-02-13T12:26:47.492Z,99574.88
2024-02-13T12:29:27.988Z,99581.56
2024-02-13T12:31:55.251Z,99574.28
2024-02-13T12:34:30.949Z,99572.94
2024-02-13T12:36:58.392Z,99574.03
2024-02-13T12:39:28.311Z,99575.25
2024-02-13T12:42:29.633Z,99577.28
2024-02-13T12:45:12.629Z,99589.94
2024-02-13T12:48:04.901Z,99581.41
2024-02-13T13:15:06.988Z,99608.78
2024-02-13T13:17:49.343Z,99599.00
2024-02-13T13:28:00.126Z,99615.78
2024-02-13T13:30:41.163Z,99591.69
2024-02-13T13:33:45.445Z,99629.56
2024-02-13T13:36:14.201Z,99624.81
2024-02-13T13:38:42.765Z,99605.81
2024-02-13T13:44:34.839Z,99636.66
2024-02-13T13:57:38.179Z,99621.06
2024-02-13T14:00:22.269Z,99653.63
2024-02-13T14:06:15.895Z,99646.13
2024-02-13T14:08:43.666Z,99652.69
2024-02-13T14:11:14.458Z,99635.25
2024-02-13T14:13:42.008Z,99642.13
2024-02-13T14:16:10.542Z,99674.44
2024-02-13T14:18:38.898Z,99675.81
2024-02-13T14:21:06.561Z,99662.34
2024-02-13T14:23:34.286Z,99688.47
2024-02-13T14:26:09.445Z,99667.72
2024-02-13T14:28:36.834Z,99662.06
2024-02-13T14:38:44.282Z,99688.53
2024-02-13T14:42:00.255Z,99733.19
2024-02-13T14:44:28.255Z,99720.13
2024-02-13T14:46:59.340Z,99721.19
2024-02-13T14:49:27.901Z,99717.16
2024-02-13T14:55:22.246Z,99739.31
2024-02-13T14:58:01.118Z,99725.13
2024-02-13T15:00:42.573Z,99732.75
2024-02-13T15:03:13.437Z,99724.38
2024-02-13T15:05:46.522Z,99733.53
2024-02-13T15:08:20.767Z,99717.25
2024-02-13T15:10:49.664Z,99741.88
2024-02-13T15:13:31.102Z,99756.13
2024-02-13T15:17:02.257Z,99773.56
2024-02-13T15:19:31.060Z,99761.00
2024-02-13T15:21:59.465Z,99750.34
2024-02-13T15:24:27.204Z,99761.88
2024-02-13T15:26:54.709Z,99781.75
2024-02-13T15:29:27.746Z,99754.78
2024-02-13T15:31:57.974Z,99760.03
2024-02-13T15:38:17.232Z,99753.91
2024-02-13T15:41:03.148Z,99791.03
2024-02-13T15:43:48.799Z,99798.44
2024-02-13T15:46:34.821Z,99790.09
2024-02-13T15:49:02.257Z,99788.94
2024-02-13T15:51:30.165Z,99818.41
2024-02-13T15:53:57.493Z,99796.44
2024-02-13T15:56:48.672Z,99808.69
2024-02-13T15:59:18.612Z,99818.06
2024-02-13T16:01:47.370Z,99816.00
2024-02-13T16:12:24.803Z,99843.19
2024-02-13T16:18:02.287Z,99836.22
2024-02-13T16:24:15.559Z,99825.63
2024-02-13T16:26:47.483Z,99822.72
2024-02-13T16:29:19.755Z,99827.75
2024-02-13T16:32:07.940Z,99847.50
2024-02-13T16:34:36.501Z,99826.75
2024-02-13T16:37:23.402Z,99869.59
2024-02-13T16:39:51.169Z,99842.09
2024-02-13T16:42:25.604Z,99846.84
2024-02-13T16:44:53.067Z,99852.84
2024-02-13T16:47:23.870Z,99864.09
2024-02-13T16:49:51.566Z,99856.38
2024-02-13T16:52:20.406Z,99878.56
2024-02-13T16:54:53.239Z,99886.88
2024-02-13T16:57:23.990Z,99859.31
2024-02-13T16:59:55.552Z,99874.19
2024-02-13T17:02:23.585Z,99880.22
2024-02-13T17:04:50.948Z,99883.56
2024-02-13T17:07:18.892Z,99887.59
2024-02-13T17:09:51.641Z,99908.53
2024-02-13T17:12:21.421Z,99888.47
2024-02-13T17:14:50.173Z,99917.72
2024-02-13T17:17:54.291Z,99884.59
2024-02-13T17:20:21.811Z,99897.00
2024-02-13T17:22:49.507Z,99892.66
2024-02-13T17:25:20.085Z,99910.03
2024-02-13T17:27:47.437Z,99904.31
2024-02-13T17:30:16.513Z,99902.38
2024-02-13T17:32:58.521Z,99892.28
2024-02-13T17:35:30.225Z,99922.50
2024-02-13T17:37:57.815Z,99927.28
2024-02-13T17:40:25.027Z,99922.44
2024-02-13T17:43:24.542Z,99931.44
2024-02-13T17:45:51.719Z,99936.25
2024-02-13T17:48:19.807Z,99943.44
2024-02-13T17:50:48.175Z,99940.09
2024-02-13T17:53:15.813Z,99942.66
2024-02-13T17:55:44.524Z,99939.72
2024-02-13T17:58:12.437Z,99944.09
2024-02-13T18:00:39.858Z,99940.56
2024-02-13T18:03:11.995Z,99951.53
2024-02-13T18:05:39.921Z,99946.38
2024-02-13T18:08:21.482Z,99965.06
2024-02-13T18:10:48.739Z,99955.22
2024-02-13T18:13:15.992Z,99951.50
2024-02-13T18:15:43.480Z,99969.31
2024-02-13T18:18:11.006Z,99956.63
2024-02-13T18:20:42.436Z,99974.03
2024-02-13T18:23:10.266Z,99959.53
2024-02-13T18:25:37.739Z,99974.66
2024-02-13T18:28:05.707Z,99972.94
2024-02-13T18:30:36.224Z,99970.31
2024-02-13T18:33:04.788Z,99989.00
2024-02-13T18:35:33.206Z,99995.03
2024-02-13T18:38:02.414Z,99982.44
2024-02-13T18:40:30.308Z,99993.13
2024-02-13T18:42:57.987Z,99985.28
2024-02-13T18:45:25.463Z,100015.84
2024-02-13T18:47:56.968Z,100013.25
2024-02-13T18:50:24.569Z,100005.66
2024-02-13T18:52:51.920Z,100017.38
2024-02-13T18:55:19.197Z,100022.69
2024-02-13T18:57:47.656Z,100012.56
2024-02-13T19:00:15.809Z,100019.56
2024-02-13T19:02:43.551Z,99985.97
2024-02-13T19:05:11.231Z,100008.28
2024-02-13T19:07:49.278Z,99991.31
2024-02-13T19:10:16.763Z,100022.13
2024-02-13T19:12:44.154Z,100003.34
2024-02-13T19:15:13.124Z,99998.38
2024-02-13T19:17:43.396Z,100023.81
2024-02-13T19:20:13.904Z,100002.00
2024-02-13T19:22:42.137Z,100019.34
2024-02-13T19:25:09.984Z,100004.81
2024-02-13T19:27:40.803Z,100044.44
2024-02-13T19:30:12.563Z,100052.00
2024-02-13T19:33:06.975Z,100027.22
2024-02-13T19:35:34.950Z,100052.63
2024-02-13T19:38:02.633Z,100006.44
2024-02-13T19:40:30.188Z,100031.88
2024-02-13T19:42:59.443Z,100028.22
2024-02-13T19:45:28.490Z,100039.38
2024-02-13T19:48:19.287Z,100029.59
2024-02-13T19:51:07.813Z,100056.50
2024-02-13T19:53:55.824Z,100052.78
2024-02-13T19:56:47.233Z,100052.28
2024-02-13T19:59:36.234Z,100033.72
2024-02-13T20:02:23.876Z,100070.34
2024-02-13T20:05:11.476Z,100070.91
2024-02-13T20:07:59.105Z,100074.50
2024-02-13T20:10:26.879Z,100077.41
2024-02-13T20:12:56.757Z,100060.44
2024-02-13T20:15:28.597Z,100087.09
2024-02-13T20:17:56.944Z,100062.00
2024-02-13T20:21:00.570Z,100085.53
2024-02-13T20:23:55.715Z,100067.97
2024-02-13T20:40:39.273Z,100086.34
2024-02-13T20:43:11.525Z,100091.75
2024-02-13T20:45:43.970Z,100084.00
2024-02-13T20:48:15.061Z,100078.59
2024-02-13T20:50:42.723Z,100081.34
2024-02-13T20:53:16.096Z,100092.50
2024-02-13T20:55:46.170Z,100081.66
2024-02-13T20:58:13.416Z,100091.31
2024-02-13T21:00:41.611Z,100117.66
2024-02-13T21:03:09.252Z,100097.34
2024-02-13T21:05:41.350Z,100104.59
2024-02-13T21:08:08.651Z,100100.47
2024-02-13T21:10:36.009Z,100114.28
2024-02-13T21:13:06.963Z,100120.00
2024-02-13T21:15:35.667Z,100113.53
2024-02-13T21:18:22.196Z,100093.94
2024-02-13T21:21:09.187Z,100106.78
2024-02-13T21:23:54.725Z,100115.19
2024-02-13T21:26:23.284Z,100122.16
2024-02-13T21:28:51.332Z,100108.13
2024-02-13T21:31:20.356Z,100130.16
2024-02-13T21:33:47.859Z,100133.03
2024-02-13T21:36:22.625Z,100121.53
2024-02-13T21:38:52.761Z,100134.00
2024-02-13T21:41:20.189Z,100137.94
2024-02-13T21:43:47.620Z,100134.06
2024-02-13T21:46:16.252Z,100140.59
2024-02-13T21:48:44.074Z,100157.00
2024-02-13T21:51:11.659Z,100145.50
2024-02-13T21:53:39.294Z,100149.13
2024-02-13T21:56:06.982Z,100162.50
2024-02-13T21:58:37.205Z,100160.94
2024-02-13T22:01:05.658Z,100168.50
2024-02-13T22:03:33.799Z,100159.13
2024-02-13T22:06:01.103Z,100160.25
2024-02-13T22:08:28.473Z,100155.31
2024-02-13T22:10:58.255Z,100168.66
2024-02-13T22:13:27.249Z,100177.28
2024-02-13T22:15:54.991Z,100175.41
2024-02-13T22:18:26.625Z,100176.50
2024-02-13T22:20:54.385Z,100179.91
2024-02-13T22:23:21.714Z,100190.91
2024-02-13T22:25:49.227Z,100190.09
2024-02-13T22:28:17.628Z,100177.34
2024-02-13T22:30:47.395Z,100191.69
2024-02-13T22:33:28.368Z,100195.31
2024-02-13T22:39:56.214Z,100201.91
2024-02-13T22:42:23.702Z,100202.41
2024-02-13T22:44:51.010Z,100212.31
2024-02-13T22:47:18.608Z,100210.25
2024-02-13T22:49:46.202Z,100218.84
2024-02-13T22:52:21.141Z,100216.47
2024-02-13T22:55:25.958Z,100217.00
2024-02-13T22:57:53.457Z,100237.13
2024-02-13T23:00:41.943Z,100218.84
2024-02-13T23:03:09.498Z,100212.34
2024-02-13T23:05:37.245Z,100223.31
2024-02-13T23:08:09.612Z,100229.84
2024-02-13T23:10:38.650Z,100230.34
2024-02-13T23:13:06.359Z,100235.84
2024-02-13T23:15:33.757Z,100234.00
2024-02-13T23:18:05.880Z,100216.75
2024-02-13T23:20:33.307Z,100232.97
2024-02-13T23:23:01.126Z,100235.56
2024-02-13T23:25:28.510Z,100232.69
2024-02-13T23:27:58.219Z,100230.38
2024-02-13T23:30:25.796Z,100234.03
2024-02-13T23:32:53.162Z,100225.91
2024-02-13T23:35:20.332Z,100241.56
2024-02-13T23:37:47.649Z,100251.75
2024-02-13T23:40:20.356Z,100252.28
2024-02-13T23:42:52.274Z,100234.53
2024-02-13T23:45:19.701Z,100261.91
2024-02-13T23:47:48.329Z,100259.59
2024-02-13T23:50:16.275Z,100262.72
2024-02-13T23:52:43.410Z,100256.47
2024-02-13T23:55:11.245Z,100262.47
2024-02-13T23:57:44.543Z,100259.53
